»·PEaware :: SWA377 KRNO-KSFO

SWA377 :: KRNO-KSFO

FLIGHT INFORMATION

Flight Status: Arrived
Operator:
Southwest Airlines
More flights by this operator :: More flights under this callsign
Pilot: Ben F. (13029)
Aircraft: BOEING 737-800
(B738)
More flights by this aircraft type
Origin: KRNO Reno/Tahoe Intl
United States
Destination: KSFO San Francisco Intl
United States
More flights between these airports :: More routes between these airports
Route: ZEFFR6 MRLET LEGGS BDEGA3
File this flight plan on PilotEdge
Remarks: RMK / SIMBRIEF
Altitude:
(Current/Filed)
30,000ft
Speed:
(Current/Filed)
461kts
Departed: 22-Mar-20 12:04 PM
Arrived: 22-Mar-20 12:58 PM
Distance/Time
Traveled:
167nm/0:54
Distance/Time
To Go:
Arrived

Flight Plot

Page will automatically refresh every two minutes.

Flight plan parsing failed; only flown route is shown


Map Options




Map Legend


Flown Route
Filed Route
Departure Airport
Arrival Airport
Navaid (VOR, NDB)
Fix

Horizontal Profiles

Position Reports

Time Latitude Longitude Heading Altitude Ground
Speed
22-Mar-20 11:35 39.504442 -119.772792 355 4420ft 0kts
22-Mar-20 11:36 39.504442 -119.772792 355 4420ft 0kts
22-Mar-20 11:37 39.504442 -119.772792 355 4420ft 0kts
22-Mar-20 11:38 39.504442 -119.772792 355 4420ft 0kts
22-Mar-20 11:39 39.504442 -119.772792 355 4420ft 0kts
22-Mar-20 11:40 39.504442 -119.772792 355 4420ft 0kts
22-Mar-20 11:41 39.504442 -119.772792 355 4420ft 0kts
22-Mar-20 11:42 39.504442 -119.772792 355 4420ft 0kts
22-Mar-20 11:43 39.504442 -119.772792 355 4420ft 0kts
22-Mar-20 11:44 39.504442 -119.772792 355 4420ft 0kts
22-Mar-20 11:45 39.504442 -119.772792 355 4420ft 0kts
22-Mar-20 11:46 39.504442 -119.772792 355 4420ft 0kts
22-Mar-20 11:47 39.504442 -119.772792 355 4420ft 0kts
22-Mar-20 11:48 39.504442 -119.772792 355 4420ft 0kts
22-Mar-20 11:49 39.504442 -119.772792 355 4420ft 0kts
22-Mar-20 11:50 39.504442 -119.772792 355 4420ft 0kts
22-Mar-20 11:50 39.504442 -119.772792 355 4420ft 0kts
22-Mar-20 11:52 39.504441 -119.772792 355 4420ft 0kts
22-Mar-20 11:53 39.504441 -119.772792 355 4420ft 0kts
22-Mar-20 11:53 39.504441 -119.772792 355 4420ft 0kts
22-Mar-20 11:54 39.504130 -119.772805 353 4420ft 2kts
22-Mar-20 11:56 39.503728 -119.773030 89 4420ft 0kts
22-Mar-20 11:57 39.503728 -119.773029 89 4420ft 0kts
22-Mar-20 11:57 39.503728 -119.773029 89 4420ft 0kts
22-Mar-20 11:58 39.503728 -119.773029 89 4420ft 0kts
22-Mar-20 12:00 39.503748 -119.772096 78 4420ft 10kts
22-Mar-20 12:00 39.507685 -119.771494 359 4420ft 29kts
22-Mar-20 12:01 39.513661 -119.770916 71 4420ft 2kts
22-Mar-20 12:02 39.513729 -119.769593 100 4420ft 9kts
22-Mar-20 12:03 39.511328 -119.769230 180 4420ft 61kts
22-Mar-20 12:04 39.469309 -119.768645 176 6343ft 176kts
22-Mar-20 12:05 39.422289 -119.767791 178 8329ft 164kts
22-Mar-20 12:06 39.375795 -119.767596 176 10439ft 169kts
22-Mar-20 12:07 39.325739 -119.767367 176 12583ft 195kts
22-Mar-20 12:08 39.261327 -119.766380 176 14188ft 271kts
22-Mar-20 12:09 39.193360 -119.812968 248 15814ft 335kts
22-Mar-20 12:10 39.166383 -119.936319 255 17555ft 363kts
22-Mar-20 12:11 39.169337 -120.062726 278 20155ft 357kts
22-Mar-20 12:12 39.189009 -120.190428 281 21903ft 369kts
22-Mar-20 12:13 39.210944 -120.321106 282 23493ft 380kts
22-Mar-20 12:14 39.233427 -120.456404 282 24972ft 389kts
22-Mar-20 12:15 39.256195 -120.594438 282 26281ft 399kts
22-Mar-20 12:16 39.275939 -120.715217 282 27470ft 401kts
22-Mar-20 12:17 39.299200 -120.857748 282 28788ft 401kts
22-Mar-20 12:18 39.321281 -121.004076 273 30067ft 416kts
22-Mar-20 12:19 39.294488 -121.155132 236 30171ft 453kts
22-Mar-20 12:20 39.212846 -121.286072 226 30161ft 487kts
22-Mar-20 12:21 39.123466 -121.422986 227 30163ft 509kts
22-Mar-20 12:22 39.043179 -121.545285 227 30177ft 523kts
22-Mar-20 12:23 39.017575 -121.584181 226 30207ft 526kts
22-Mar-20 12:24 38.903171 -121.757525 227 30175ft 415kts
22-Mar-20 12:25 38.829114 -121.869052 229 30186ft 423kts
22-Mar-20 12:26 38.752718 -121.983844 229 30185ft 421kts
22-Mar-20 12:27 38.676849 -122.097485 229 30190ft 418kts
22-Mar-20 12:28 38.605983 -122.203148 229 30191ft 361kts
22-Mar-20 12:29 38.539355 -122.302245 228 30182ft 370kts
22-Mar-20 12:30 38.473550 -122.399794 228 28592ft 356kts
22-Mar-20 12:31 38.409519 -122.493900 227 26764ft 348kts
22-Mar-20 12:32 38.346701 -122.587158 226 24839ft 344kts
22-Mar-20 12:33 38.284750 -122.678904 226 23040ft 338kts
22-Mar-20 12:34 38.207158 -122.743602 191 20900ft 332kts
22-Mar-20 12:35 38.117691 -122.736547 166 19222ft 321kts
22-Mar-20 12:36 38.031250 -122.711316 166 17536ft 314kts
22-Mar-20 12:37 37.946592 -122.686814 165 15875ft 308kts
22-Mar-20 12:38 37.870535 -122.642717 140 14722ft 303kts
22-Mar-20 12:39 37.805515 -122.573615 139 12701ft 294kts
22-Mar-20 12:40 37.769106 -122.535079 139 11794ft 284kts
22-Mar-20 12:42 37.686691 -122.447653 138 11025ft 181kts
22-Mar-20 12:43 37.650042 -122.408680 138 11033ft 162kts
22-Mar-20 12:44 37.609605 -122.366701 146 11015ft 196kts
22-Mar-20 12:45 37.560870 -122.335161 151 10989ft 199kts
22-Mar-20 12:46 37.511216 -122.303801 151 9333ft 195kts
22-Mar-20 12:47 37.462686 -122.273146 151 7734ft 193kts
22-Mar-20 12:48 37.414323 -122.242591 151 6046ft 193kts
22-Mar-20 12:49 37.388546 -122.194865 63 4144ft 180kts
22-Mar-20 12:50 37.426522 -122.157928 33 3774ft 170kts
22-Mar-20 12:51 37.469453 -122.154594 333 2818ft 168kts
22-Mar-20 12:52 37.510827 -122.181514 333 2040ft 164kts
22-Mar-20 12:53 37.551194 -122.209958 309 2015ft 165kts
22-Mar-20 12:54 37.571218 -122.262617 299 2032ft 166kts
22-Mar-20 12:55 37.592295 -122.312133 299 1278ft 138kts
22-Mar-20 12:56 37.610487 -122.355498 298 155ft 139kts
22-Mar-20 12:57 37.619887 -122.378943 237 31ft 11kts
22-Mar-20 12:58 37.617761 -122.379432 168 32ft 18kts
22-Mar-20 12:59 37.612776 -122.383032 293 34ft 0kts
22-Mar-20 13:00 37.612829 -122.383174 296 34ft 0kts
22-Mar-20 13:01 37.612829 -122.383174 296 34ft 0kts
22-Mar-20 13:02 37.612829 -122.383174 296 34ft 0kts
22-Mar-20 13:03 37.612829 -122.383174 296 34ft 0kts
22-Mar-20 13:04 37.612829 -122.383174 296 33ft 0kts
22-Mar-20 13:05 37.612829 -122.383174 296 33ft 0kts
22-Mar-20 13:06 37.612829 -122.383174 296 33ft 0kts
22-Mar-20 13:07 37.612829 -122.383174 296 33ft 0kts

Navigation Log

Ident Type
Flight plan parsing failed, navigation log unavailable